sensor_id;sensor_type;location;lat;lon;timestamp;P1;durP1;ratioP1;P2;durP2;ratioP2
31004;SDS011;17676;52.254;4.490;2024-01-07T00:00:51;6.57;;;5.50;;
31004;SDS011;17676;52.254;4.490;2024-01-07T00:03:17;7.10;;;5.47;;
31004;SDS011;17676;52.254;4.490;2024-01-07T00:05:44;7.57;;;5.30;;
31004;SDS011;17676;52.254;4.490;2024-01-07T00:08:11;9.07;;;5.63;;
31004;SDS011;17676;52.254;4.490;2024-01-07T00:10:37;6.53;;;5.57;;
31004;SDS011;17676;52.254;4.490;2024-01-07T00:13:04;7.00;;;5.67;;
31004;SDS011;17676;52.254;4.490;2024-01-07T00:15:31;6.70;;;5.50;;
31004;SDS011;17676;52.254;4.490;2024-01-07T00:17:58;6.53;;;5.53;;
31004;SDS011;17676;52.254;4.490;2024-01-07T00:20:24;6.70;;;5.50;;
31004;SDS011;17676;52.254;4.490;2024-01-07T00:22:51;8.00;;;6.17;;
31004;SDS011;17676;52.254;4.490;2024-01-07T00:25:17;8.87;;;6.03;;
31004;SDS011;17676;52.254;4.490;2024-01-07T00:27:45;8.57;;;6.23;;
31004;SDS011;17676;52.254;4.490;2024-01-07T00:30:11;8.37;;;6.03;;
31004;SDS011;17676;52.254;4.490;2024-01-07T00:32:38;7.03;;;5.50;;
31004;SDS011;17676;52.254;4.490;2024-01-07T00:35:05;6.97;;;5.97;;
31004;SDS011;17676;52.254;4.490;2024-01-07T00:37:32;6.13;;;5.40;;
31004;SDS011;17676;52.254;4.490;2024-01-07T00:40:01;7.43;;;5.30;;
31004;SDS011;17676;52.254;4.490;2024-01-07T00:42:28;6.13;;;5.33;;
31004;SDS011;17676;52.254;4.490;2024-01-07T00:44:55;6.30;;;4.77;;
31004;SDS011;17676;52.254;4.490;2024-01-07T00:47:21;5.67;;;5.07;;
31004;SDS011;17676;52.254;4.490;2024-01-07T00:49:48;6.17;;;4.87;;
31004;SDS011;17676;52.254;4.490;2024-01-07T00:52:15;6.00;;;5.20;;
31004;SDS011;17676;52.254;4.490;2024-01-07T00:54:41;6.87;;;4.70;;
31004;SDS011;17676;52.254;4.490;2024-01-07T00:57:09;6.17;;;5.10;;
31004;SDS011;17676;52.254;4.490;2024-01-07T00:59:38;6.60;;;5.37;;
31004;SDS011;17676;52.254;4.490;2024-01-07T01:02:05;6.57;;;5.17;;
31004;SDS011;17676;52.254;4.490;2024-01-07T01:04:32;10.03;;;6.77;;
31004;SDS011;17676;52.254;4.490;2024-01-07T01:06:59;6.80;;;6.10;;
31004;SDS011;17676;52.254;4.490;2024-01-07T01:09:27;9.43;;;6.57;;
31004;SDS011;17676;52.254;4.490;2024-01-07T01:11:55;7.67;;;6.13;;
31004;SDS011;17676;52.254;4.490;2024-01-07T01:14:21;7.53;;;6.37;;
31004;SDS011;17676;52.254;4.490;2024-01-07T01:16:48;8.23;;;6.60;;
31004;SDS011;17676;52.254;4.490;2024-01-07T01:19:15;8.43;;;7.07;;
31004;SDS011;17676;52.254;4.490;2024-01-07T01:21:42;8.83;;;7.00;;
31004;SDS011;17676;52.254;4.490;2024-01-07T01:24:09;9.03;;;6.57;;
31004;SDS011;17676;52.254;4.490;2024-01-07T01:26:35;8.43;;;6.20;;
31004;SDS011;17676;52.254;4.490;2024-01-07T01:29:02;9.00;;;6.77;;
31004;SDS011;17676;52.254;4.490;2024-01-07T01:31:28;10.43;;;6.90;;
31004;SDS011;17676;52.254;4.490;2024-01-07T01:33:55;9.30;;;6.73;;
31004;SDS011;17676;52.254;4.490;2024-01-07T01:36:22;8.87;;;7.03;;
31004;SDS011;17676;52.254;4.490;2024-01-07T01:38:49;9.73;;;7.70;;
31004;SDS011;17676;52.254;4.490;2024-01-07T01:41:16;9.93;;;7.50;;
31004;SDS011;17676;52.254;4.490;2024-01-07T01:43:43;11.87;;;7.63;;
31004;SDS011;17676;52.254;4.490;2024-01-07T01:46:09;13.20;;;7.97;;
31004;SDS011;17676;52.254;4.490;2024-01-07T01:48:36;10.47;;;7.47;;
31004;SDS011;17676;52.254;4.490;2024-01-07T01:51:04;12.50;;;8.47;;
31004;SDS011;17676;52.254;4.490;2024-01-07T01:53:30;9.87;;;6.93;;
31004;SDS011;17676;52.254;4.490;2024-01-07T01:55:58;10.30;;;7.67;;
31004;SDS011;17676;52.254;4.490;2024-01-07T01:58:28;10.17;;;7.87;;
31004;SDS011;17676;52.254;4.490;2024-01-07T02:00:56;11.17;;;8.00;;
31004;SDS011;17676;52.254;4.490;2024-01-07T02:03:23;9.53;;;6.83;;
31004;SDS011;17676;52.254;4.490;2024-01-07T02:05:51;8.50;;;6.53;;
31004;SDS011;17676;52.254;4.490;2024-01-07T02:08:18;11.00;;;7.90;;
31004;SDS011;17676;52.254;4.490;2024-01-07T02:10:45;12.13;;;8.67;;
31004;SDS011;17676;52.254;4.490;2024-01-07T02:13:12;11.70;;;8.03;;
31004;SDS011;17676;52.254;4.490;2024-01-07T02:15:38;10.47;;;7.60;;
31004;SDS011;17676;52.254;4.490;2024-01-07T02:18:05;11.03;;;7.73;;
31004;SDS011;17676;52.254;4.490;2024-01-07T02:20:32;12.80;;;8.47;;
31004;SDS011;17676;52.254;4.490;2024-01-07T02:22:58;11.73;;;8.63;;
31004;SDS011;17676;52.254;4.490;2024-01-07T02:25:25;11.27;;;8.00;;
31004;SDS011;17676;52.254;4.490;2024-01-07T02:27:52;12.40;;;8.43;;
31004;SDS011;17676;52.254;4.490;2024-01-07T02:30:18;10.90;;;8.27;;
31004;SDS011;17676;52.254;4.490;2024-01-07T02:32:45;12.70;;;8.27;;
31004;SDS011;17676;52.254;4.490;2024-01-07T02:35:12;10.73;;;7.30;;
31004;SDS011;17676;52.254;4.490;2024-01-07T02:37:39;10.37;;;8.13;;
31004;SDS011;17676;52.254;4.490;2024-01-07T02:40:05;9.97;;;7.87;;
31004;SDS011;17676;52.254;4.490;2024-01-07T02:42:32;11.00;;;7.87;;
31004;SDS011;17676;52.254;4.490;2024-01-07T02:44:59;11.13;;;8.37;;
31004;SDS011;17676;52.254;4.490;2024-01-07T02:47:26;10.53;;;8.17;;
31004;SDS011;17676;52.254;4.490;2024-01-07T02:49:52;10.67;;;7.47;;
31004;SDS011;17676;52.254;4.490;2024-01-07T02:52:19;10.67;;;8.70;;
31004;SDS011;17676;52.254;4.490;2024-01-07T02:54:46;9.50;;;7.63;;
31004;SDS011;17676;52.254;4.490;2024-01-07T02:57:12;9.50;;;7.33;;
31004;SDS011;17676;52.254;4.490;2024-01-07T02:59:39;11.60;;;8.40;;
31004;SDS011;17676;52.254;4.490;2024-01-07T03:02:06;11.70;;;8.30;;
31004;SDS011;17676;52.254;4.490;2024-01-07T03:04:32;10.40;;;7.97;;
31004;SDS011;17676;52.254;4.490;2024-01-07T03:06:59;10.03;;;7.83;;
31004;SDS011;17676;52.254;4.490;2024-01-07T03:09:25;10.50;;;8.27;;
31004;SDS011;17676;52.254;4.490;2024-01-07T03:11:52;13.23;;;8.50;;
31004;SDS011;17676;52.254;4.490;2024-01-07T03:14:20;11.83;;;8.53;;
31004;SDS011;17676;52.254;4.490;2024-01-07T03:16:48;9.60;;;8.37;;
31004;SDS011;17676;52.254;4.490;2024-01-07T03:19:14;10.47;;;7.97;;
31004;SDS011;17676;52.254;4.490;2024-01-07T03:21:41;10.67;;;7.83;;
31004;SDS011;17676;52.254;4.490;2024-01-07T03:24:08;10.57;;;8.63;;
31004;SDS011;17676;52.254;4.490;2024-01-07T03:26:35;9.43;;;7.87;;
31004;SDS011;17676;52.254;4.490;2024-01-07T03:29:02;10.73;;;7.93;;
31004;SDS011;17676;52.254;4.490;2024-01-07T03:31:29;11.13;;;8.13;;
31004;SDS011;17676;52.254;4.490;2024-01-07T03:33:56;13.27;;;9.37;;
31004;SDS011;17676;52.254;4.490;2024-01-07T03:36:23;10.87;;;8.00;;
31004;SDS011;17676;52.254;4.490;2024-01-07T03:38:50;9.40;;;7.50;;
31004;SDS011;17676;52.254;4.490;2024-01-07T03:41:17;11.67;;;8.47;;
31004;SDS011;17676;52.254;4.490;2024-01-07T03:43:45;10.20;;;7.83;;
31004;SDS011;17676;52.254;4.490;2024-01-07T03:46:13;11.73;;;8.80;;
31004;SDS011;17676;52.254;4.490;2024-01-07T03:48:40;12.50;;;8.57;;
31004;SDS011;17676;52.254;4.490;2024-01-07T03:51:08;11.37;;;8.40;;
31004;SDS011;17676;52.254;4.490;2024-01-07T03:53:37;12.20;;;8.80;;
31004;SDS011;17676;52.254;4.490;2024-01-07T03:56:04;10.73;;;8.43;;
31004;SDS011;17676;52.254;4.490;2024-01-07T03:58:31;11.27;;;8.87;;
31004;SDS011;17676;52.254;4.490;2024-01-07T04:00:58;10.43;;;8.77;;
31004;SDS011;17676;52.254;4.490;2024-01-07T04:03:24;12.47;;;9.27;;
31004;SDS011;17676;52.254;4.490;2024-01-07T04:05:51;11.00;;;8.00;;
31004;SDS011;17676;52.254;4.490;2024-01-07T04:08:18;11.37;;;8.10;;
31004;SDS011;17676;52.254;4.490;2024-01-07T04:10:44;10.77;;;8.40;;
31004;SDS011;17676;52.254;4.490;2024-01-07T04:13:11;10.83;;;8.43;;
31004;SDS011;17676;52.254;4.490;2024-01-07T04:15:38;10.00;;;7.70;;
31004;SDS011;17676;52.254;4.490;2024-01-07T04:18:05;12.50;;;8.27;;
31004;SDS011;17676;52.254;4.490;2024-01-07T04:20:32;11.73;;;8.27;;
31004;SDS011;17676;52.254;4.490;2024-01-07T04:22:58;12.03;;;8.17;;
31004;SDS011;17676;52.254;4.490;2024-01-07T04:25:25;11.47;;;9.07;;
31004;SDS011;17676;52.254;4.490;2024-01-07T04:27:52;11.33;;;8.23;;
31004;SDS011;17676;52.254;4.490;2024-01-07T04:30:18;9.80;;;7.83;;
31004;SDS011;17676;52.254;4.490;2024-01-07T04:32:45;12.53;;;8.97;;
31004;SDS011;17676;52.254;4.490;2024-01-07T04:35:12;10.50;;;8.10;;
31004;SDS011;17676;52.254;4.490;2024-01-07T04:37:38;11.87;;;8.20;;
31004;SDS011;17676;52.254;4.490;2024-01-07T04:40:05;11.97;;;8.63;;
31004;SDS011;17676;52.254;4.490;2024-01-07T04:42:33;12.07;;;8.90;;
31004;SDS011;17676;52.254;4.490;2024-01-07T04:45:00;10.13;;;7.50;;
31004;SDS011;17676;52.254;4.490;2024-01-07T04:47:28;9.00;;;7.93;;
31004;SDS011;17676;52.254;4.490;2024-01-07T04:49:57;10.73;;;7.77;;
31004;SDS011;17676;52.254;4.490;2024-01-07T04:52:24;9.10;;;8.13;;
31004;SDS011;17676;52.254;4.490;2024-01-07T04:54:52;9.30;;;7.57;;
31004;SDS011;17676;52.254;4.490;2024-01-07T04:57:19;11.33;;;7.93;;
31004;SDS011;17676;52.254;4.490;2024-01-07T04:59:47;13.23;;;9.27;;
31004;SDS011;17676;52.254;4.490;2024-01-07T05:02:14;11.10;;;8.47;;
31004;SDS011;17676;52.254;4.490;2024-01-07T05:04:41;10.43;;;8.70;;
31004;SDS011;17676;52.254;4.490;2024-01-07T05:07:08;12.60;;;9.57;;
31004;SDS011;17676;52.254;4.490;2024-01-07T05:09:35;11.20;;;9.10;;
31004;SDS011;17676;52.254;4.490;2024-01-07T05:12:02;12.50;;;9.47;;
31004;SDS011;17676;52.254;4.490;2024-01-07T05:14:28;13.77;;;9.43;;
31004;SDS011;17676;52.254;4.490;2024-01-07T05:16:55;10.37;;;8.83;;
31004;SDS011;17676;52.254;4.490;2024-01-07T05:19:22;12.77;;;9.50;;
31004;SDS011;17676;52.254;4.490;2024-01-07T05:21:49;13.70;;;9.37;;
31004;SDS011;17676;52.254;4.490;2024-01-07T05:24:16;15.70;;;10.47;;
31004;SDS011;17676;52.254;4.490;2024-01-07T05:26:43;13.43;;;10.17;;
31004;SDS011;17676;52.254;4.490;2024-01-07T05:29:11;12.87;;;9.63;;
31004;SDS011;17676;52.254;4.490;2024-01-07T05:31:40;13.50;;;9.80;;
31004;SDS011;17676;52.254;4.490;2024-01-07T05:34:07;15.00;;;9.53;;
31004;SDS011;17676;52.254;4.490;2024-01-07T05:36:34;14.13;;;9.70;;
31004;SDS011;17676;52.254;4.490;2024-01-07T05:39:01;13.90;;;9.50;;
31004;SDS011;17676;52.254;4.490;2024-01-07T05:41:27;14.43;;;10.00;;
31004;SDS011;17676;52.254;4.490;2024-01-07T05:43:54;13.87;;;9.67;;
31004;SDS011;17676;52.254;4.490;2024-01-07T05:46:21;12.30;;;10.60;;
31004;SDS011;17676;52.254;4.490;2024-01-07T05:48:48;12.03;;;8.63;;
31004;SDS011;17676;52.254;4.490;2024-01-07T05:51:15;12.80;;;9.67;;
31004;SDS011;17676;52.254;4.490;2024-01-07T05:53:43;12.47;;;9.40;;
31004;SDS011;17676;52.254;4.490;2024-01-07T05:56:11;11.47;;;8.63;;
31004;SDS011;17676;52.254;4.490;2024-01-07T05:58:38;12.03;;;8.23;;
31004;SDS011;17676;52.254;4.490;2024-01-07T06:01:07;11.60;;;9.70;;
31004;SDS011;17676;52.254;4.490;2024-01-07T06:03:35;14.10;;;10.37;;
31004;SDS011;17676;52.254;4.490;2024-01-07T06:06:02;13.67;;;10.63;;
31004;SDS011;17676;52.254;4.490;2024-01-07T06:08:28;14.50;;;10.33;;
31004;SDS011;17676;52.254;4.490;2024-01-07T06:10:55;14.63;;;10.33;;
31004;SDS011;17676;52.254;4.490;2024-01-07T06:13:22;15.23;;;11.13;;
31004;SDS011;17676;52.254;4.490;2024-01-07T06:15:48;15.00;;;10.57;;
31004;SDS011;17676;52.254;4.490;2024-01-07T06:18:15;14.13;;;10.73;;
31004;SDS011;17676;52.254;4.490;2024-01-07T06:20:41;15.83;;;10.50;;
31004;SDS011;17676;52.254;4.490;2024-01-07T06:23:08;16.13;;;10.57;;
31004;SDS011;17676;52.254;4.490;2024-01-07T06:25:35;17.37;;;11.00;;
31004;SDS011;17676;52.254;4.490;2024-01-07T06:28:01;13.57;;;10.17;;
31004;SDS011;17676;52.254;4.490;2024-01-07T06:30:28;18.27;;;10.90;;
31004;SDS011;17676;52.254;4.490;2024-01-07T06:32:55;14.53;;;10.00;;
31004;SDS011;17676;52.254;4.490;2024-01-07T06:35:22;14.83;;;10.63;;
31004;SDS011;17676;52.254;4.490;2024-01-07T06:37:49;14.87;;;10.07;;
31004;SDS011;17676;52.254;4.490;2024-01-07T06:40:15;17.33;;;10.97;;
31004;SDS011;17676;52.254;4.490;2024-01-07T06:42:42;12.20;;;9.73;;
31004;SDS011;17676;52.254;4.490;2024-01-07T06:45:10;13.67;;;10.03;;
31004;SDS011;17676;52.254;4.490;2024-01-07T06:47:37;11.47;;;8.67;;
31004;SDS011;17676;52.254;4.490;2024-01-07T06:50:03;11.63;;;9.53;;
31004;SDS011;17676;52.254;4.490;2024-01-07T06:52:31;12.70;;;9.10;;
31004;SDS011;17676;52.254;4.490;2024-01-07T06:54:57;12.47;;;7.80;;
31004;SDS011;17676;52.254;4.490;2024-01-07T06:57:24;10.47;;;8.70;;
31004;SDS011;17676;52.254;4.490;2024-01-07T06:59:51;9.33;;;7.83;;
31004;SDS011;17676;52.254;4.490;2024-01-07T07:02:17;9.63;;;7.40;;
31004;SDS011;17676;52.254;4.490;2024-01-07T07:04:46;9.33;;;6.87;;
31004;SDS011;17676;52.254;4.490;2024-01-07T07:07:14;12.03;;;6.97;;
31004;SDS011;17676;52.254;4.490;2024-01-07T07:09:41;8.87;;;7.53;;
31004;SDS011;17676;52.254;4.490;2024-01-07T07:12:08;11.20;;;7.20;;
31004;SDS011;17676;52.254;4.490;2024-01-07T07:14:34;7.77;;;5.67;;
31004;SDS011;17676;52.254;4.490;2024-01-07T07:17:01;10.80;;;7.23;;
31004;SDS011;17676;52.254;4.490;2024-01-07T07:19:28;9.37;;;7.43;;
31004;SDS011;17676;52.254;4.490;2024-01-07T07:21:54;9.43;;;6.57;;
31004;SDS011;17676;52.254;4.490;2024-01-07T07:24:21;7.67;;;6.40;;
31004;SDS011;17676;52.254;4.490;2024-01-07T07:26:48;9.57;;;6.13;;
31004;SDS011;17676;52.254;4.490;2024-01-07T07:29:15;9.57;;;6.20;;
31004;SDS011;17676;52.254;4.490;2024-01-07T07:31:41;8.17;;;5.90;;
31004;SDS011;17676;52.254;4.490;2024-01-07T07:34:08;5.90;;;5.30;;
31004;SDS011;17676;52.254;4.490;2024-01-07T07:36:36;8.87;;;5.77;;
31004;SDS011;17676;52.254;4.490;2024-01-07T07:39:02;9.60;;;6.63;;
31004;SDS011;17676;52.254;4.490;2024-01-07T07:41:29;10.57;;;6.00;;
31004;SDS011;17676;52.254;4.490;2024-01-07T07:43:56;7.47;;;5.37;;
31004;SDS011;17676;52.254;4.490;2024-01-07T07:46:22;8.13;;;5.40;;
31004;SDS011;17676;52.254;4.490;2024-01-07T07:48:49;7.57;;;5.47;;
31004;SDS011;17676;52.254;4.490;2024-01-07T07:51:16;6.50;;;5.30;;
31004;SDS011;17676;52.254;4.490;2024-01-07T07:53:43;7.07;;;5.67;;
31004;SDS011;17676;52.254;4.490;2024-01-07T07:56:09;7.17;;;4.53;;
31004;SDS011;17676;52.254;4.490;2024-01-07T07:58:36;5.50;;;5.00;;
31004;SDS011;17676;52.254;4.490;2024-01-07T08:01:03;6.73;;;5.13;;
31004;SDS011;17676;52.254;4.490;2024-01-07T08:03:31;7.67;;;4.40;;
31004;SDS011;17676;52.254;4.490;2024-01-07T08:05:58;7.83;;;4.97;;
31004;SDS011;17676;52.254;4.490;2024-01-07T08:08:24;6.50;;;4.63;;
31004;SDS011;17676;52.254;4.490;2024-01-07T08:10:51;6.20;;;4.40;;
31004;SDS011;17676;52.254;4.490;2024-01-07T08:13:18;5.70;;;3.93;;
31004;SDS011;17676;52.254;4.490;2024-01-07T08:15:44;4.73;;;3.63;;
31004;SDS011;17676;52.254;4.490;2024-01-07T08:18:11;5.00;;;4.00;;
31004;SDS011;17676;52.254;4.490;2024-01-07T08:20:38;4.03;;;3.33;;
31004;SDS011;17676;52.254;4.490;2024-01-07T08:23:04;5.37;;;4.00;;
31004;SDS011;17676;52.254;4.490;2024-01-07T08:25:32;5.03;;;4.03;;
31004;SDS011;17676;52.254;4.490;2024-01-07T08:27:58;5.23;;;3.77;;
31004;SDS011;17676;52.254;4.490;2024-01-07T08:30:25;4.20;;;3.77;;
31004;SDS011;17676;52.254;4.490;2024-01-07T08:32:52;6.23;;;4.13;;
31004;SDS011;17676;52.254;4.490;2024-01-07T08:35:19;5.33;;;4.00;;
31004;SDS011;17676;52.254;4.490;2024-01-07T08:37:48;5.40;;;3.00;;
31004;SDS011;17676;52.254;4.490;2024-01-07T08:40:15;5.00;;;3.57;;
31004;SDS011;17676;52.254;4.490;2024-01-07T08:42:45;4.90;;;3.67;;
31004;SDS011;17676;52.254;4.490;2024-01-07T08:45:12;6.37;;;4.47;;
31004;SDS011;17676;52.254;4.490;2024-01-07T08:47:39;3.50;;;3.20;;
31004;SDS011;17676;52.254;4.490;2024-01-07T08:50:10;5.63;;;3.37;;
31004;SDS011;17676;52.254;4.490;2024-01-07T08:52:37;4.73;;;3.60;;
31004;SDS011;17676;52.254;4.490;2024-01-07T08:55:03;7.40;;;4.20;;
31004;SDS011;17676;52.254;4.490;2024-01-07T08:57:32;5.13;;;3.70;;
31004;SDS011;17676;52.254;4.490;2024-01-07T08:59:59;6.67;;;4.03;;
31004;SDS011;17676;52.254;4.490;2024-01-07T09:02:26;4.80;;;3.57;;
31004;SDS011;17676;52.254;4.490;2024-01-07T09:04:52;8.37;;;3.77;;
31004;SDS011;17676;52.254;4.490;2024-01-07T09:07:19;5.07;;;3.63;;
31004;SDS011;17676;52.254;4.490;2024-01-07T09:09:46;3.77;;;3.07;;
31004;SDS011;17676;52.254;4.490;2024-01-07T09:12:12;5.10;;;3.87;;
31004;SDS011;17676;52.254;4.490;2024-01-07T09:14:39;5.57;;;4.03;;
31004;SDS011;17676;52.254;4.490;2024-01-07T09:17:06;6.57;;;3.90;;
31004;SDS011;17676;52.254;4.490;2024-01-07T09:19:33;5.47;;;3.60;;
31004;SDS011;17676;52.254;4.490;2024-01-07T09:22:00;5.53;;;3.37;;
31004;SDS011;17676;52.254;4.490;2024-01-07T09:24:26;5.93;;;3.97;;
31004;SDS011;17676;52.254;4.490;2024-01-07T09:26:53;6.20;;;3.60;;
31004;SDS011;17676;52.254;4.490;2024-01-07T09:29:20;5.27;;;3.33;;
31004;SDS011;17676;52.254;4.490;2024-01-07T09:31:46;4.47;;;3.37;;
31004;SDS011;17676;52.254;4.490;2024-01-07T09:34:13;4.27;;;2.93;;
31004;SDS011;17676;52.254;4.490;2024-01-07T09:36:42;5.03;;;3.03;;
31004;SDS011;17676;52.254;4.490;2024-01-07T09:39:09;4.03;;;3.20;;
31004;SDS011;17676;52.254;4.490;2024-01-07T09:41:36;3.30;;;3.00;;
31004;SDS011;17676;52.254;4.490;2024-01-07T09:44:03;3.57;;;2.40;;
31004;SDS011;17676;52.254;4.490;2024-01-07T09:46:30;1.87;;;1.77;;
31004;SDS011;17676;52.254;4.490;2024-01-07T09:48:58;5.10;;;2.70;;
31004;SDS011;17676;52.254;4.490;2024-01-07T09:51:25;2.80;;;2.40;;
31004;SDS011;17676;52.254;4.490;2024-01-07T09:53:56;3.50;;;2.43;;
31004;SDS011;17676;52.254;4.490;2024-01-07T09:56:29;5.80;;;2.60;;
31004;SDS011;17676;52.254;4.490;2024-01-07T09:59:15;2.27;;;2.07;;
31004;SDS011;17676;52.254;4.490;2024-01-07T10:01:44;3.90;;;2.00;;
31004;SDS011;17676;52.254;4.490;2024-01-07T10:04:13;3.70;;;2.37;;
31004;SDS011;17676;52.254;4.490;2024-01-07T10:06:40;2.90;;;2.13;;
31004;SDS011;17676;52.254;4.490;2024-01-07T10:09:07;5.40;;;2.37;;
31004;SDS011;17676;52.254;4.490;2024-01-07T10:11:34;3.77;;;2.03;;
31004;SDS011;17676;52.254;4.490;2024-01-07T10:14:00;2.83;;;2.07;;
31004;SDS011;17676;52.254;4.490;2024-01-07T10:16:27;3.63;;;1.90;;
31004;SDS011;17676;52.254;4.490;2024-01-07T10:18:53;3.60;;;1.70;;
31004;SDS011;17676;52.254;4.490;2024-01-07T10:21:20;2.10;;;1.77;;
31004;SDS011;17676;52.254;4.490;2024-01-07T10:23:47;4.07;;;2.20;;
31004;SDS011;17676;52.254;4.490;2024-01-07T10:26:13;5.73;;;2.03;;
31004;SDS011;17676;52.254;4.490;2024-01-07T10:28:52;6.77;;;2.33;;
31004;SDS011;17676;52.254;4.490;2024-01-07T10:31:19;2.87;;;1.93;;
31004;SDS011;17676;52.254;4.490;2024-01-07T10:33:46;2.97;;;1.93;;
31004;SDS011;17676;52.254;4.490;2024-01-07T10:36:13;3.23;;;1.70;;
31004;SDS011;17676;52.254;4.490;2024-01-07T10:38:40;3.00;;;1.60;;
31004;SDS011;17676;52.254;4.490;2024-01-07T10:41:10;2.20;;;1.83;;
31004;SDS011;17676;52.254;4.490;2024-01-07T10:43:38;2.10;;;1.37;;
31004;SDS011;17676;52.254;4.490;2024-01-07T10:46:05;11.03;;;1.67;;
31004;SDS011;17676;52.254;4.490;2024-01-07T10:48:36;2.37;;;1.60;;
31004;SDS011;17676;52.254;4.490;2024-01-07T10:51:04;3.17;;;1.60;;
31004;SDS011;17676;52.254;4.490;2024-01-07T10:53:33;2.77;;;1.47;;
31004;SDS011;17676;52.254;4.490;2024-01-07T10:56:03;3.87;;;1.43;;
31004;SDS011;17676;52.254;4.490;2024-01-07T10:58:35;3.20;;;1.30;;
31004;SDS011;17676;52.254;4.490;2024-01-07T11:01:03;1.90;;;1.27;;
31004;SDS011;17676;52.254;4.490;2024-01-07T11:03:43;2.20;;;1.20;;
31004;SDS011;17676;52.254;4.490;2024-01-07T11:06:36;1.70;;;0.90;;
31004;SDS011;17676;52.254;4.490;2024-01-07T11:09:18;1.13;;;0.93;;
31004;SDS011;17676;52.254;4.490;2024-01-07T11:11:50;3.07;;;1.30;;
31004;SDS011;17676;52.254;4.490;2024-01-07T11:17:06;2.07;;;1.00;;
31004;SDS011;17676;52.254;4.490;2024-01-07T11:19:36;1.20;;;0.80;;
31004;SDS011;17676;52.254;4.490;2024-01-07T11:25:01;1.57;;;1.30;;
31004;SDS011;17676;52.254;4.490;2024-01-07T11:27:29;1.23;;;0.93;;
31004;SDS011;17676;52.254;4.490;2024-01-07T11:30:07;2.70;;;1.00;;
31004;SDS011;17676;52.254;4.490;2024-01-07T11:32:44;1.50;;;0.80;;
31004;SDS011;17676;52.254;4.490;2024-01-07T11:35:15;0.77;;;0.77;;
31004;SDS011;17676;52.254;4.490;2024-01-07T11:37:42;1.93;;;0.80;;
31004;SDS011;17676;52.254;4.490;2024-01-07T11:40:08;0.70;;;0.40;;
31004;SDS011;17676;52.254;4.490;2024-01-07T11:42:36;1.57;;;1.47;;
31004;SDS011;17676;52.254;4.490;2024-01-07T11:45:05;2.53;;;1.13;;
31004;SDS011;17676;52.254;4.490;2024-01-07T11:47:33;2.20;;;1.40;;
31004;SDS011;17676;52.254;4.490;2024-01-07T11:50:00;2.60;;;1.37;;
31004;SDS011;17676;52.254;4.490;2024-01-07T11:52:27;1.33;;;1.10;;
31004;SDS011;17676;52.254;4.490;2024-01-07T11:54:55;1.53;;;0.80;;
31004;SDS011;17676;52.254;4.490;2024-01-07T11:57:22;1.47;;;0.77;;
31004;SDS011;17676;52.254;4.490;2024-01-07T11:59:49;2.07;;;0.53;;
31004;SDS011;17676;52.254;4.490;2024-01-07T12:02:16;1.60;;;0.50;;
31004;SDS011;17676;52.254;4.490;2024-01-07T12:04:43;2.80;;;0.70;;
31004;SDS011;17676;52.254;4.490;2024-01-07T12:07:10;1.97;;;0.80;;
31004;SDS011;17676;52.254;4.490;2024-01-07T12:09:40;1.83;;;0.80;;
31004;SDS011;17676;52.254;4.490;2024-01-07T12:12:07;2.13;;;0.90;;
31004;SDS011;17676;52.254;4.490;2024-01-07T12:14:34;2.23;;;0.87;;
31004;SDS011;17676;52.254;4.490;2024-01-07T12:17:02;1.27;;;0.50;;
31004;SDS011;17676;52.254;4.490;2024-01-07T12:19:29;0.97;;;0.37;;
31004;SDS011;17676;52.254;4.490;2024-01-07T12:22:03;1.67;;;0.50;;
31004;SDS011;17676;52.254;4.490;2024-01-07T12:24:30;1.53;;;0.60;;
31004;SDS011;17676;52.254;4.490;2024-01-07T12:26:56;1.20;;;0.47;;
31004;SDS011;17676;52.254;4.490;2024-01-07T12:29:30;1.20;;;0.30;;
31004;SDS011;17676;52.254;4.490;2024-01-07T12:31:57;1.17;;;0.37;;
31004;SDS011;17676;52.254;4.490;2024-01-07T12:34:24;0.80;;;0.50;;
31004;SDS011;17676;52.254;4.490;2024-01-07T12:36:51;1.83;;;0.40;;
31004;SDS011;17676;52.254;4.490;2024-01-07T12:39:21;1.13;;;0.63;;
31004;SDS011;17676;52.254;4.490;2024-01-07T12:41:52;0.80;;;0.47;;
31004;SDS011;17676;52.254;4.490;2024-01-07T12:44:19;1.50;;;0.60;;
31004;SDS011;17676;52.254;4.490;2024-01-07T12:46:46;1.20;;;0.40;;
31004;SDS011;17676;52.254;4.490;2024-01-07T12:49:14;1.27;;;0.40;;
31004;SDS011;17676;52.254;4.490;2024-01-07T12:51:42;0.83;;;0.40;;
31004;SDS011;17676;52.254;4.490;2024-01-07T12:54:08;2.30;;;0.37;;
31004;SDS011;17676;52.254;4.490;2024-01-07T12:56:35;1.07;;;0.37;;
31004;SDS011;17676;52.254;4.490;2024-01-07T12:59:02;2.27;;;0.50;;
31004;SDS011;17676;52.254;4.490;2024-01-07T13:01:29;1.13;;;0.30;;
31004;SDS011;17676;52.254;4.490;2024-01-07T13:03:57;0.60;;;0.30;;
31004;SDS011;17676;52.254;4.490;2024-01-07T13:06:25;0.20;;;0.20;;
31004;SDS011;17676;52.254;4.490;2024-01-07T13:08:52;0.40;;;0.40;;
31004;SDS011;17676;52.254;4.490;2024-01-07T13:11:19;0.40;;;0.30;;
31004;SDS011;17676;52.254;4.490;2024-01-07T13:13:45;2.50;;;0.40;;
31004;SDS011;17676;52.254;4.490;2024-01-07T13:16:13;0.93;;;0.40;;
31004;SDS011;17676;52.254;4.490;2024-01-07T13:18:39;1.07;;;0.40;;
31004;SDS011;17676;52.254;4.490;2024-01-07T13:21:06;1.50;;;0.30;;
31004;SDS011;17676;52.254;4.490;2024-01-07T13:23:33;1.03;;;0.50;;
31004;SDS011;17676;52.254;4.490;2024-01-07T13:26:00;1.70;;;0.40;;
31004;SDS011;17676;52.254;4.490;2024-01-07T13:28:32;1.13;;;0.40;;
31004;SDS011;17676;52.254;4.490;2024-01-07T13:30:58;0.57;;;0.37;;
31004;SDS011;17676;52.254;4.490;2024-01-07T13:33:26;0.93;;;0.60;;
31004;SDS011;17676;52.254;4.490;2024-01-07T13:35:54;1.17;;;0.43;;
31004;SDS011;17676;52.254;4.490;2024-01-07T13:38:20;2.27;;;1.13;;
31004;SDS011;17676;52.254;4.490;2024-01-07T13:40:47;1.23;;;0.70;;
31004;SDS011;17676;52.254;4.490;2024-01-07T13:43:14;0.20;;;0.20;;
31004;SDS011;17676;52.254;4.490;2024-01-07T13:45:42;0.73;;;0.30;;
31004;SDS011;17676;52.254;4.490;2024-01-07T13:48:08;0.30;;;0.30;;
31004;SDS011;17676;52.254;4.490;2024-01-07T13:50:35;1.37;;;0.43;;
31004;SDS011;17676;52.254;4.490;2024-01-07T13:53:03;1.60;;;0.30;;
31004;SDS011;17676;52.254;4.490;2024-01-07T13:55:29;0.53;;;0.23;;
31004;SDS011;17676;52.254;4.490;2024-01-07T13:57:56;1.77;;;0.47;;
31004;SDS011;17676;52.254;4.490;2024-01-07T14:00:22;0.93;;;0.30;;
31004;SDS011;17676;52.254;4.490;2024-01-07T14:02:49;2.17;;;0.60;;
31004;SDS011;17676;52.254;4.490;2024-01-07T14:05:16;0.73;;;0.50;;
31004;SDS011;17676;52.254;4.490;2024-01-07T14:07:45;0.77;;;0.33;;
31004;SDS011;17676;52.254;4.490;2024-01-07T14:10:12;0.40;;;0.27;;
31004;SDS011;17676;52.254;4.490;2024-01-07T14:12:40;0.50;;;0.30;;
31004;SDS011;17676;52.254;4.490;2024-01-07T14:15:07;1.13;;;0.37;;
31004;SDS011;17676;52.254;4.490;2024-01-07T14:17:35;0.30;;;0.20;;
31004;SDS011;17676;52.254;4.490;2024-01-07T14:20:02;0.20;;;0.20;;
31004;SDS011;17676;52.254;4.490;2024-01-07T14:22:29;0.57;;;0.33;;
31004;SDS011;17676;52.254;4.490;2024-01-07T14:24:56;0.20;;;0.20;;
31004;SDS011;17676;52.254;4.490;2024-01-07T14:27:23;0.43;;;0.30;;
31004;SDS011;17676;52.254;4.490;2024-01-07T14:29:50;0.90;;;0.40;;
31004;SDS011;17676;52.254;4.490;2024-01-07T14:32:17;0.90;;;0.20;;
31004;SDS011;17676;52.254;4.490;2024-01-07T14:34:44;1.03;;;0.30;;
31004;SDS011;17676;52.254;4.490;2024-01-07T14:37:11;0.50;;;0.40;;
31004;SDS011;17676;52.254;4.490;2024-01-07T14:39:38;0.70;;;0.30;;
31004;SDS011;17676;52.254;4.490;2024-01-07T14:42:06;1.10;;;0.30;;
31004;SDS011;17676;52.254;4.490;2024-01-07T14:44:32;0.60;;;0.23;;
31004;SDS011;17676;52.254;4.490;2024-01-07T14:47:13;0.30;;;0.20;;
31004;SDS011;17676;52.254;4.490;2024-01-07T14:49:41;1.60;;;0.30;;